Current Conditions
Clear
Conditions



Pressure
30.31 (inHG) - 1026.41 (mb)
Visibility

10.0 (miles) - 16.1 (km)
Temperature
64  °F
Temperature
57  °F
Dewpoint
78  %
 Humidity
Wind Speed
0  mph
0  kts
0  km/h
0  m/s
Wind Direction
N
45°
E
90°
135°
S
180°
225°
W
270°
315°
Calm

Due North
Airport Data
KLSE
La Crosse Regional Airport
Metar :KLSE 201153Z 00000KT 10SM CLR 18/14 A3031 RMK AO2 SLP258 T01830144 10183 20161 50008 $
Thu 20th June 06:53 am
Raw Metar Info
Raw METAR is the most common format in the world for the transmission of observational weather data. It is highly standardized through the International Civil Aviation Organization (ICAO), which allows it to be understood throughout most of the world.
API Info
Data Provided by
https://www.checkwx.com/weather/KLSE

Aviation Weather providing METAR, TAF, AIRMET, SIGMET and OUTLOOK Weather Reports
© Info
CSS/SVG/PHP scripts were developed by weather34 for use in the weather34 template © 2015-2024

Guide Info provided by Metar-Wikipedia